createdAt,value
2019-05-03T00:00:14.091Z,96178.11
2019-05-03T00:03:08.275Z,96178.10
2019-05-03T00:05:56.386Z,96178.38
2019-05-03T00:08:25.595Z,96183.97
2019-05-03T00:10:54.777Z,96191.20
2019-05-03T00:13:23.910Z,96187.75
2019-05-03T00:16:17.582Z,96189.07
2019-05-03T00:18:46.833Z,96193.89
2019-05-03T00:21:15.987Z,96192.55
2019-05-03T00:23:45.131Z,96190.41
2019-05-03T00:26:14.304Z,96199.52
2019-05-03T00:28:43.433Z,96209.38
2019-05-03T00:31:12.654Z,96208.55
2019-05-03T00:33:43.425Z,96204.52
2019-05-03T00:36:41.941Z,96206.36
2019-05-03T00:39:39.402Z,96210.59
2019-05-03T00:42:08.557Z,96212.45
2019-05-03T00:44:37.694Z,96211.53
2019-05-03T00:47:06.859Z,96215.69
2019-05-03T00:49:35.993Z,96213.68
2019-05-03T00:52:05.157Z,96227.47
2019-05-03T00:54:34.289Z,96216.56
2019-05-03T00:57:03.477Z,96226.38
2019-05-03T00:59:32.762Z,96228.31
2019-05-03T01:02:02.683Z,96235.48
2019-05-03T01:04:32.001Z,96219.02
2019-05-03T01:07:02.256Z,96228.69
2019-05-03T01:09:31.893Z,96231.67
2019-05-03T01:12:01.922Z,96227.41
2019-05-03T01:14:31.747Z,96227.69
2019-05-03T01:17:02.648Z,96230.42
2019-05-03T01:19:33.824Z,96232.31
2019-05-03T01:22:02.957Z,96225.41
2019-05-03T01:24:32.402Z,96228.89
2019-05-03T01:27:02.044Z,96224.34
2019-05-03T01:29:32.262Z,96229.34
2019-05-03T01:32:02.339Z,96221.54
2019-05-03T01:34:32.674Z,96233.33
2019-05-03T01:37:02.651Z,96237.38
2019-05-03T01:39:32.006Z,96235.80
2019-05-03T01:42:02.707Z,96234.46
2019-05-03T01:44:32.674Z,96230.39
2019-05-03T01:47:04.750Z,96237.83
2019-05-03T01:49:42.610Z,96233.09
2019-05-03T01:52:16.508Z,96234.09
2019-05-03T01:54:45.686Z,96231.42
2019-05-03T01:57:14.817Z,96230.39
2019-05-03T01:59:44.014Z,96221.79
2019-05-03T02:02:26.474Z,96222.78
2019-05-03T02:05:13.296Z,96233.13
2019-05-03T02:07:42.446Z,96226.86
2019-05-03T02:10:12.066Z,96222.42
2019-05-03T02:12:41.688Z,96219.91
2019-05-03T02:15:11.911Z,96218.16
2019-05-03T02:17:42.721Z,96223.69
2019-05-03T02:20:12.709Z,96230.50
2019-05-03T02:22:42.781Z,96227.19
2019-05-03T02:25:12.524Z,96223.06
2019-05-03T02:27:42.387Z,96227.75
2019-05-03T02:30:14.070Z,96217.09
2019-05-03T02:32:44.214Z,96226.05
2019-05-03T02:35:14.265Z,96219.09
2019-05-03T02:37:45.634Z,96218.78
2019-05-03T02:40:15.362Z,96219.15
2019-05-03T02:43:05.734Z,96221.06
2019-05-03T02:45:38.538Z,96217.03
2019-05-03T02:48:16.540Z,96218.09
2019-05-03T02:50:46.010Z,96217.84
2019-05-03T02:53:15.786Z,96219.42
2019-05-03T02:55:45.515Z,96221.57
2019-05-03T02:58:15.906Z,96217.03
2019-05-03T03:00:57.244Z,96218.95
2019-05-03T03:03:27.767Z,96220.48
2019-05-03T03:05:58.634Z,96226.44
2019-05-03T03:08:32.824Z,96220.14
2019-05-03T03:11:02.280Z,96221.23
2019-05-03T03:13:33.243Z,96220.95
2019-05-03T03:16:06.750Z,96227.44
2019-05-03T03:18:37.795Z,96224.48
2019-05-03T03:21:11.164Z,96227.97
2019-05-03T03:24:10.147Z,96230.39
2019-05-03T03:26:43.181Z,96232.84
2019-05-03T03:29:16.093Z,96231.98
2019-05-03T03:32:29.791Z,96234.09
2019-05-03T03:35:13.103Z,96240.99
2019-05-03T03:37:42.500Z,96237.52
2019-05-03T03:40:13.114Z,96238.88
2019-05-03T03:42:44.980Z,96236.77
2019-05-03T03:45:16.509Z,96234.90
2019-05-03T03:47:47.990Z,96233.22
2019-05-03T03:50:17.164Z,96235.73
2019-05-03T03:52:48.226Z,96242.54
2019-05-03T03:55:17.385Z,96241.61
2019-05-03T03:57:47.051Z,96236.77
2019-05-03T04:00:16.487Z,96241.02
2019-05-03T04:02:45.982Z,96245.09
2019-05-03T04:05:16.036Z,96249.66
2019-05-03T04:07:46.358Z,96252.02
2019-05-03T04:10:16.003Z,96248.55
2019-05-03T04:12:46.646Z,96250.97
2019-05-03T04:15:36.645Z,96260.81
2019-05-03T04:18:21.668Z,96262.40
2019-05-03T04:20:51.029Z,96264.23
2019-05-03T04:23:20.378Z,96266.91
2019-05-03T04:25:49.994Z,96267.46
2019-05-03T04:28:19.173Z,96266.16
2019-05-03T04:30:48.314Z,96260.32
2019-05-03T04:33:17.491Z,96263.23
2019-05-03T04:35:46.871Z,96261.91
2019-05-03T04:38:16.496Z,96256.56
2019-05-03T04:40:45.928Z,96273.16
2019-05-03T04:43:16.521Z,96277.94
2019-05-03T04:46:00.520Z,96275.27
2019-05-03T04:48:29.685Z,96269.20
2019-05-03T04:50:58.820Z,96279.43
2019-05-03T04:53:28.820Z,96275.92
2019-05-03T04:55:57.968Z,96281.35
2019-05-03T04:58:27.159Z,96284.55
2019-05-03T05:00:56.313Z,96281.41
2019-05-03T05:03:26.525Z,96288.45
2019-05-03T05:05:59.562Z,96295.28
2019-05-03T05:08:26.809Z,96291.09
2019-05-03T05:10:56.069Z,96299.59
2019-05-03T05:13:25.213Z,96291.09
2019-05-03T05:15:55.091Z,96294.78
2019-05-03T05:18:30.560Z,96307.09
2019-05-03T05:21:22.019Z,96311.98
2019-05-03T05:24:01.814Z,96311.76
2019-05-03T05:26:40.931Z,96313.61
2019-05-03T05:29:11.950Z,96314.19
2019-05-03T05:31:41.315Z,96316.91
2019-05-03T05:34:10.475Z,96320.62
2019-05-03T05:36:39.612Z,96320.54
2019-05-03T05:39:09.406Z,96325.77
2019-05-03T05:41:38.554Z,96324.42
2019-05-03T05:44:07.713Z,96322.62
2019-05-03T05:46:45.421Z,96323.38
2019-05-03T05:49:16.442Z,96322.34
2019-05-03T05:51:45.594Z,96330.66
2019-05-03T05:54:14.761Z,96335.78
2019-05-03T05:57:00.624Z,96326.75
2019-05-03T05:59:48.744Z,96339.38
2019-05-03T06:02:18.776Z,96340.73
2019-05-03T06:04:47.963Z,96336.92
2019-05-03T06:07:48.139Z,96343.13
2019-05-03T06:10:55.375Z,96341.58
2019-05-03T06:13:37.889Z,96340.78
2019-05-03T06:16:24.641Z,96345.58
2019-05-03T06:19:14.712Z,96345.49
2019-05-03T06:21:50.165Z,96345.86
2019-05-03T06:24:25.430Z,96358.19
2019-05-03T06:27:02.287Z,96358.20
2019-05-03T06:29:31.452Z,96362.48
2019-05-03T06:32:15.606Z,96363.56
2019-05-03T06:34:45.519Z,96359.53
2019-05-03T06:37:16.849Z,96362.97
2019-05-03T06:39:46.059Z,96369.44
2019-05-03T06:42:19.166Z,96368.62
2019-05-03T06:44:46.164Z,96373.42
2019-05-03T06:47:15.306Z,96370.97
2019-05-03T06:49:48.340Z,96374.05
2019-05-03T06:52:19.846Z,96376.35
2019-05-03T06:54:46.331Z,96373.41
2019-05-03T06:57:17.352Z,96374.56
2019-05-03T07:00:01.040Z,96371.08
2019-05-03T07:02:55.154Z,96366.61
2019-05-03T07:05:44.426Z,96365.16
2019-05-03T07:08:31.584Z,96369.02
2019-05-03T07:11:01.617Z,96373.55
2019-05-03T07:13:30.922Z,96374.64
2019-05-03T07:16:00.127Z,96376.48
2019-05-03T07:18:29.281Z,96374.25
2019-05-03T07:20:58.745Z,96384.28
2019-05-03T07:23:27.907Z,96386.12
2019-05-03T07:25:57.078Z,96394.44
2019-05-03T07:28:26.229Z,96386.58
2019-05-03T07:30:55.444Z,96389.27
2019-05-03T07:33:30.070Z,96394.70
2019-05-03T07:35:59.239Z,96388.83
2019-05-03T07:38:28.395Z,96392.52
2019-05-03T07:40:57.600Z,96399.22
2019-05-03T07:43:26.748Z,96406.55
2019-05-03T07:45:55.919Z,96411.20
2019-05-03T07:48:25.588Z,96400.38
2019-05-03T07:50:55.243Z,96387.75
2019-05-03T07:53:25.178Z,96389.16
2019-05-03T07:56:05.058Z,96390.20
2019-05-03T07:58:35.125Z,96388.42
2019-05-03T08:01:10.006Z,96390.21
2019-05-03T08:03:38.249Z,96400.23
2019-05-03T08:06:07.461Z,96395.03
2019-05-03T08:08:36.605Z,96398.82
2019-05-03T08:11:05.790Z,96406.22
2019-05-03T08:13:35.626Z,96393.49
2019-05-03T08:16:05.876Z,96401.08
2019-05-03T08:18:35.616Z,96401.20
2019-05-03T08:21:05.659Z,96409.70
2019-05-03T08:23:35.489Z,96403.41
2019-05-03T08:26:05.761Z,96400.99
2019-05-03T08:28:35.410Z,96416.27
2019-05-03T08:31:26.667Z,96412.11
2019-05-03T08:34:20.761Z,96416.25
2019-05-03T08:37:17.828Z,96413.16
2019-05-03T08:39:46.987Z,96414.53
2019-05-03T08:42:25.435Z,96417.58
2019-05-03T08:44:55.304Z,96411.64
2019-05-03T08:47:24.888Z,96414.26
2019-05-03T08:49:55.415Z,96413.54
2019-05-03T08:52:24.950Z,96412.58
2019-05-03T08:54:54.986Z,96413.94
2019-05-03T08:57:25.420Z,96405.41
2019-05-03T08:59:55.063Z,96411.17
2019-05-03T09:02:25.823Z,96409.34
2019-05-03T09:04:55.106Z,96409.73
2019-05-03T09:07:25.352Z,96414.30
2019-05-03T09:10:16.935Z,96417.32
2019-05-03T09:13:09.249Z,96413.45
2019-05-03T09:15:39.097Z,96404.28
2019-05-03T09:18:08.964Z,96410.03
2019-05-03T09:20:38.181Z,96415.11
2019-05-03T09:23:07.360Z,96407.31
2019-05-03T09:25:36.705Z,96409.35
2019-05-03T09:28:06.295Z,96407.35
2019-05-03T09:30:35.874Z,96407.15
2019-05-03T09:33:08.836Z,96399.81
2019-05-03T09:35:36.327Z,96392.31
2019-05-03T09:38:05.929Z,96396.59
2019-05-03T09:40:35.437Z,96399.88
2019-05-03T09:43:04.911Z,96401.56
2019-05-03T09:45:35.286Z,96389.10
2019-05-03T09:48:05.744Z,96393.87
2019-05-03T09:50:35.863Z,96394.77
2019-05-03T09:53:05.611Z,96397.73
2019-05-03T09:55:38.198Z,96399.56
2019-05-03T09:58:07.390Z,96399.19
2019-05-03T10:00:36.612Z,96396.66
2019-05-03T10:03:06.196Z,96412.33
2019-05-03T10:05:35.394Z,96405.88
2019-05-03T10:08:05.214Z,96404.61
2019-05-03T10:10:52.500Z,96397.01
2019-05-03T10:13:23.759Z,96400.00
2019-05-03T10:15:54.817Z,96402.61
2019-05-03T10:18:25.510Z,96387.02
2019-05-03T10:20:56.211Z,96397.20
2019-05-03T10:23:39.441Z,96393.28
2019-05-03T10:26:09.362Z,96386.65
2019-05-03T10:28:38.843Z,96384.48
2019-05-03T10:31:08.114Z,96389.70
2019-05-03T10:33:51.368Z,96393.80
2019-05-03T10:36:20.582Z,96387.75
2019-05-03T10:38:49.769Z,96385.34
2019-05-03T10:41:18.943Z,96375.39
2019-05-03T10:43:48.085Z,96374.89
2019-05-03T10:46:17.260Z,96373.16
2019-05-03T10:48:46.436Z,96368.92
2019-05-03T10:51:16.019Z,96379.29
2019-05-03T10:53:48.299Z,96382.23
2019-05-03T10:56:39.305Z,96383.59
2019-05-03T10:59:09.440Z,96379.17
2019-05-03T11:01:49.334Z,96385.05
2019-05-03T11:04:18.554Z,96363.45
2019-05-03T11:06:47.768Z,96356.86
2019-05-03T11:09:16.954Z,96361.12
2019-05-03T11:11:46.112Z,96369.67
2019-05-03T11:14:15.251Z,96364.34
2019-05-03T11:16:46.044Z,96369.30
2019-05-03T11:19:15.313Z,96354.01
2019-05-03T11:21:45.539Z,96355.51
2019-05-03T11:24:15.067Z,96355.51
2019-05-03T11:26:45.904Z,96362.66
2019-05-03T11:29:15.866Z,96359.24
2019-05-03T11:32:01.627Z,96356.44
2019-05-03T11:34:36.827Z,96350.35
2019-05-03T11:37:25.208Z,96346.03
2019-05-03T11:39:55.860Z,96344.14
2019-05-03T11:42:25.389Z,96335.81
2019-05-03T11:44:54.643Z,96334.08
2019-05-03T11:47:25.583Z,96342.39
2019-05-03T11:49:55.808Z,96338.88
2019-05-03T11:52:25.869Z,96332.21
2019-05-03T11:54:55.365Z,96333.38
2019-05-03T11:57:27.228Z,96335.05
2019-05-03T12:00:33.033Z,96336.22
2019-05-03T12:03:12.785Z,96329.41
2019-05-03T12:05:44.566Z,96335.95
2019-05-03T12:08:14.754Z,96322.02
2019-05-03T12:10:53.052Z,96326.61
2019-05-03T12:13:34.038Z,96327.74
2019-05-03T12:16:14.755Z,96331.14
2019-05-03T12:18:47.905Z,96337.70
2019-05-03T12:21:08.597Z,96343.75
2019-05-03T12:23:37.478Z,96325.51
2019-05-03T12:26:12.791Z,96319.43
2019-05-03T12:28:38.474Z,96333.34
2019-05-03T12:31:07.917Z,96327.52
2019-05-03T12:33:37.238Z,96321.23
2019-05-03T12:36:07.368Z,96311.14
2019-05-03T12:38:36.760Z,96309.84
2019-05-03T12:41:06.218Z,96304.58
2019-05-03T12:43:35.750Z,96306.17
2019-05-03T12:46:05.331Z,96301.94
2019-05-03T12:48:35.468Z,96300.94
2019-05-03T12:51:06.267Z,96297.44
2019-05-03T12:53:36.408Z,96295.80
2019-05-03T12:56:11.119Z,96294.83
2019-05-03T12:58:49.796Z,96313.06
2019-05-03T13:01:41.707Z,96312.23
2019-05-03T13:04:15.693Z,96295.17
2019-05-03T13:06:49.577Z,96303.91
2019-05-03T13:09:19.004Z,96298.54
2019-05-03T13:11:54.813Z,96297.48
2019-05-03T13:14:21.781Z,96304.95
2019-05-03T13:16:51.157Z,96293.23
2019-05-03T13:19:20.650Z,96307.62
2019-05-03T13:21:50.174Z,96298.31
2019-05-03T13:24:23.222Z,96289.08
2019-05-03T13:26:51.763Z,96298.34
2019-05-03T13:29:21.122Z,96301.06
2019-05-03T13:32:00.716Z,96290.92
2019-05-03T13:34:21.566Z,96299.67
2019-05-03T13:36:50.963Z,96290.94
2019-05-03T13:39:20.430Z,96290.94
2019-05-03T13:41:49.812Z,96289.33
2019-05-03T13:44:19.170Z,96280.73
2019-05-03T13:46:48.504Z,96271.20
2019-05-03T13:49:17.895Z,96268.02
2019-05-03T13:51:47.221Z,96266.91
2019-05-03T13:54:16.627Z,96273.94
2019-05-03T13:56:45.903Z,96281.52
2019-05-03T13:59:19.842Z,96262.23
2019-05-03T14:01:46.324Z,96261.41
2019-05-03T14:04:15.886Z,96266.77
2019-05-03T14:06:45.242Z,96269.86
2019-05-03T14:09:14.636Z,96262.09
2019-05-03T14:11:44.809Z,96253.94
2019-05-03T14:14:15.229Z,96257.23
2019-05-03T14:16:45.245Z,96268.39
2019-05-03T14:19:20.833Z,96251.65
2019-05-03T14:21:54.617Z,96256.94
2019-05-03T14:24:24.542Z,96244.05
2019-05-03T14:26:55.101Z,96247.77
2019-05-03T14:29:25.363Z,96242.97
2019-05-03T14:31:54.753Z,96265.55
2019-05-03T14:34:25.701Z,96251.67
2019-05-03T14:36:55.534Z,96248.80
2019-05-03T14:39:25.398Z,96255.62
2019-05-03T14:41:55.573Z,96251.19
2019-05-03T14:46:51.633Z,96239.62
2019-05-03T14:49:20.906Z,96242.05
2019-05-03T14:51:50.236Z,96239.16
2019-05-03T14:54:21.367Z,96234.78
2019-05-03T14:57:07.657Z,96240.70
2019-05-03T15:00:16.840Z,96243.30
2019-05-03T15:02:57.902Z,96227.68
2019-05-03T15:05:26.337Z,96234.57
2019-05-03T15:07:55.987Z,96224.92
2019-05-03T15:10:25.780Z,96227.00
2019-05-03T15:12:55.648Z,96224.81
2019-05-03T15:15:25.223Z,96221.46
2019-05-03T15:17:55.019Z,96228.16
2019-05-03T15:20:25.505Z,96221.84
2019-05-03T15:22:55.218Z,96229.59
2019-05-03T15:25:25.115Z,96227.16
2019-05-03T15:27:55.381Z,96226.63
2019-05-03T15:30:25.584Z,96227.09
2019-05-03T15:33:00.420Z,96221.98
2019-05-03T15:35:26.375Z,96239.41
2019-05-03T15:37:55.932Z,96229.34
2019-05-03T15:40:25.480Z,96225.33
2019-05-03T15:43:05.387Z,96225.33
2019-05-03T15:46:11.311Z,96215.22
2019-05-03T15:48:46.341Z,96233.20
2019-05-03T15:51:15.769Z,96226.93
2019-05-03T15:53:45.020Z,96222.95
2019-05-03T15:56:14.773Z,96233.31
2019-05-03T15:58:46.754Z,96221.95
2019-05-03T16:01:15.453Z,96224.15
2019-05-03T16:03:45.022Z,96240.52
2019-05-03T16:06:15.588Z,96237.38
2019-05-03T16:08:45.204Z,96234.98
2019-05-03T16:11:14.958Z,96223.98
2019-05-03T16:13:44.844Z,96229.78
2019-05-03T16:16:15.221Z,96229.45
2019-05-03T16:18:45.080Z,96224.45
2019-05-03T16:21:14.779Z,96218.28
2019-05-03T16:23:46.371Z,96223.95
2019-05-03T16:26:15.305Z,96220.98
2019-05-03T16:28:55.453Z,96222.27
2019-05-03T16:31:26.662Z,96221.83
2019-05-03T16:33:56.197Z,96222.58
2019-05-03T16:36:25.649Z,96228.29
2019-05-03T16:38:55.454Z,96226.72
2019-05-03T16:41:25.013Z,96222.22
2019-05-03T16:43:54.508Z,96224.70
2019-05-03T16:46:23.854Z,96221.27
2019-05-03T16:48:53.216Z,96216.39
2019-05-03T16:51:22.792Z,96221.88
2019-05-03T16:53:52.158Z,96228.67
2019-05-03T16:56:21.628Z,96227.31
2019-05-03T16:58:51.114Z,96225.31
2019-05-03T17:01:20.543Z,96218.11
2019-05-03T17:03:54.994Z,96224.47
2019-05-03T17:06:40.753Z,96222.41
2019-05-03T17:09:18.628Z,96225.66
2019-05-03T17:12:06.350Z,96224.56
2019-05-03T17:14:35.740Z,96223.68
2019-05-03T17:17:07.245Z,96221.61
2019-05-03T17:19:36.129Z,96227.63
2019-05-03T17:22:05.725Z,96225.53
2019-05-03T17:24:35.400Z,96220.86
2019-05-03T17:27:04.899Z,96221.81
2019-05-03T17:29:35.072Z,96219.64
2019-05-03T17:32:05.084Z,96224.84
2019-05-03T17:34:34.816Z,96222.64
2019-05-03T17:37:05.034Z,96225.59
2019-05-03T17:40:03.102Z,96233.23
2019-05-03T17:42:50.022Z,96226.89
2019-05-03T17:45:25.381Z,96230.16
2019-05-03T17:47:54.939Z,96235.76
2019-05-03T17:50:24.455Z,96242.87
2019-05-03T17:53:11.264Z,96239.88
2019-05-03T17:56:05.282Z,96238.53
2019-05-03T17:58:44.323Z,96241.27
2019-05-03T18:01:38.481Z,96238.80
2019-05-03T18:04:15.750Z,96249.16
2019-05-03T18:06:55.597Z,96242.41
2019-05-03T18:09:29.138Z,96247.57
2019-05-03T18:11:59.700Z,96237.30
2019-05-03T18:14:29.064Z,96247.84
2019-05-03T18:16:58.381Z,96243.52
2019-05-03T18:19:27.788Z,96236.56
2019-05-03T18:21:57.143Z,96238.77
2019-05-03T18:24:26.585Z,96238.73
2019-05-03T18:26:55.906Z,96233.67
2019-05-03T18:29:25.347Z,96236.36
2019-05-03T18:31:55.051Z,96233.13
2019-05-03T18:34:24.985Z,96231.82
2019-05-03T18:36:54.947Z,96236.92
2019-05-03T18:39:25.234Z,96231.08
2019-05-03T18:41:54.884Z,96234.94
2019-05-03T18:44:46.580Z,96241.64
2019-05-03T18:47:19.896Z,96238.49
2019-05-03T18:49:49.318Z,96232.60
2019-05-03T18:52:18.828Z,96238.05
2019-05-03T18:54:48.207Z,96244.50
2019-05-03T18:57:17.519Z,96243.95
2019-05-03T18:59:46.949Z,96251.22
2019-05-03T19:02:16.343Z,96246.41
2019-05-03T19:04:49.622Z,96254.17
2019-05-03T19:07:36.772Z,96249.09
2019-05-03T19:10:28.845Z,96248.83
2019-05-03T19:13:11.015Z,96246.14
2019-05-03T19:15:40.447Z,96238.38
2019-05-03T19:18:30.519Z,96239.44
2019-05-03T19:21:00.245Z,96243.47
2019-05-03T19:23:29.660Z,96246.41
2019-05-03T19:25:59.146Z,96244.27
2019-05-03T19:28:28.480Z,96249.34
2019-05-03T19:30:57.762Z,96250.93
2019-05-03T19:33:27.056Z,96258.14
2019-05-03T19:35:56.429Z,96256.52
2019-05-03T19:38:25.822Z,96259.75
2019-05-03T19:40:55.159Z,96261.87
2019-05-03T19:43:27.035Z,96254.08
2019-05-03T19:45:55.674Z,96248.23
2019-05-03T19:48:25.686Z,96253.06
2019-05-03T19:50:55.085Z,96243.97
2019-05-03T19:53:49.335Z,96246.88
2019-05-03T19:56:20.750Z,96252.77
2019-05-03T19:58:52.495Z,96245.54
2019-05-03T20:01:40.759Z,96240.97
2019-05-03T20:04:42.256Z,96247.67
2019-05-03T20:07:36.861Z,96239.40
2019-05-03T20:10:07.638Z,96242.62
2019-05-03T20:12:38.064Z,96240.23
2019-05-03T20:15:07.891Z,96247.44
2019-05-03T20:17:37.299Z,96239.64
2019-05-03T20:20:07.074Z,96241.26
2019-05-03T20:22:36.352Z,96235.63
2019-05-03T20:25:05.903Z,96236.17
2019-05-03T20:27:35.393Z,96239.10
2019-05-03T20:30:05.891Z,96233.16
2019-05-03T20:32:35.867Z,96227.83
2019-05-03T20:35:16.742Z,96229.42
2019-05-03T20:37:36.481Z,96222.19
2019-05-03T20:40:06.372Z,96220.28
2019-05-03T20:43:06.618Z,96214.92
2019-05-03T20:45:59.278Z,96215.73
2019-05-03T20:48:28.879Z,96214.66
2019-05-03T20:50:58.293Z,96219.98
2019-05-03T20:53:27.692Z,96215.44
2019-05-03T20:55:56.940Z,96219.40
2019-05-03T20:58:26.289Z,96213.55
2019-05-03T21:00:55.618Z,96211.67
2019-05-03T21:03:25.032Z,96220.20
2019-05-03T21:05:55.218Z,96211.69
2019-05-03T21:08:25.426Z,96207.41
2019-05-03T21:10:56.024Z,96208.19
2019-05-03T21:13:38.959Z,96211.17
2019-05-03T21:16:14.785Z,96212.23
2019-05-03T21:18:50.298Z,96204.16
2019-05-03T21:21:36.493Z,96206.31
2019-05-03T21:24:14.217Z,96204.69
2019-05-03T21:26:45.144Z,96202.56
2019-05-03T21:29:15.163Z,96203.29
2019-05-03T21:31:44.734Z,96199.83
2019-05-03T21:34:14.777Z,96206.53
2019-05-03T21:36:45.336Z,96202.03
2019-05-03T21:39:14.756Z,96201.20
2019-05-03T21:41:45.063Z,96198.02
2019-05-03T21:44:30.904Z,96192.61
2019-05-03T21:47:07.370Z,96187.08
2019-05-03T21:49:42.447Z,96188.41
2019-05-03T21:52:11.774Z,96184.34
2019-05-03T21:54:41.121Z,96184.09
2019-05-03T21:57:10.501Z,96187.86
2019-05-03T21:59:39.969Z,96179.81
2019-05-03T22:02:09.547Z,96180.61
2019-05-03T22:04:38.888Z,96173.90
2019-05-03T22:07:08.429Z,96176.57
2019-05-03T22:09:37.722Z,96168.46
2019-05-03T22:12:07.165Z,96165.81
2019-05-03T22:17:47.542Z,96156.14
2019-05-03T22:20:29.410Z,96165.98
2019-05-03T22:23:04.614Z,96158.72
2019-05-03T22:25:34.945Z,96154.35
2019-05-03T22:28:07.053Z,96156.41
2019-05-03T22:30:56.509Z,96152.23
2019-05-03T22:33:25.889Z,96141.86
2019-05-03T22:36:07.934Z,96136.08
2019-05-03T22:38:26.791Z,96133.61
2019-05-03T22:40:56.191Z,96136.71
2019-05-03T22:43:25.680Z,96136.66
2019-05-03T22:45:55.307Z,96129.51
2019-05-03T22:48:25.106Z,96122.16
2019-05-03T22:50:55.588Z,96121.60
2019-05-03T22:53:25.439Z,96120.20
2019-05-03T22:55:54.891Z,96106.58
2019-05-03T22:58:24.902Z,96100.77
2019-05-03T23:00:55.059Z,96100.83
2019-05-03T23:03:25.393Z,96091.95
2019-05-03T23:05:54.923Z,96087.45
2019-05-03T23:08:25.264Z,96079.33
2019-05-03T23:10:54.878Z,96079.61
2019-05-03T23:13:24.925Z,96073.73
2019-05-03T23:15:54.722Z,96068.93
2019-05-03T23:18:24.664Z,96072.98
2019-05-03T23:21:04.660Z,96071.66
2019-05-03T23:23:49.987Z,96064.95
2019-05-03T23:26:19.455Z,96063.56
2019-05-03T23:28:49.059Z,96055.73
2019-05-03T23:31:18.585Z,96055.36
2019-05-03T23:33:47.853Z,96047.85
2019-05-03T23:36:17.237Z,96050.49
2019-05-03T23:38:46.633Z,96042.95
2019-05-03T23:41:16.116Z,96034.39
2019-05-03T23:43:45.535Z,96033.64
2019-05-03T23:46:16.536Z,96028.30
2019-05-03T23:48:46.046Z,96035.25
2019-05-03T23:51:34.941Z,96028.61
2019-05-03T23:54:05.564Z,96027.00
2019-05-03T23:56:35.210Z,96026.39
2019-05-03T23:59:05.503Z,96017.58
